Startpagina
METAR-TAF:

METAR-TAF

Vliegvelden :

Mafikeng, Zuid-Afrika

breedte: 25-47S, lengte: 025-32E, hoogte: 1281 m

Actueel weer

Dit bericht is 1 uur en het 10 minuten geleden gemaakt, om 10:00 UTC
Wind 3 kt uit het zuidzuidwesten
Temperatuur 21°C
Vochtigheid 12%
Druk 1023 hPa
Zicht 10 km of meer
geen wolken onder 1500 m en geen cumulonimbus

METAR: FAMM 251000Z 21003KT CAVOK 21/M09 Q1023 NOSIG

Tijdstip: 13:10 (11:10 UTC)

Verwachting

Dit bericht is 2 uur en het 10 minuten geleden gemaakt, om 09:00 UTC
Verwachting geldig van 25 om 10 UTC tot 25 om 18 UTC
Wind 3 kt uit variabele richting
Zicht 10 km of meer
geen wolken onder 1500 m en geen cumulonimbus

TAF: FAMM 250900Z 2510/2518 VRB03KT CAVOK TX23/2512Z TN13/2518Z

Waarnemingen en weersverwachtingen van meer dan 4000 vliegvelden (METAR en TAF).

De beschikbare stations zijn de gele en rode punten op de kaart.

Ga met uw muis naar het station om de naam te zien.

Klik dan om waarnemingen en weersverwachtingen te zien.

kaart wijzigen: klik op de groene knoppen met een zwart kruis om in te zoomen, op de groene knop met een streepje om uit te zoomen of op de groene pijlen voor aangrenzende kaarten.


METAR-TAF: